Terminal Aerodrome Forecast
Issued by NWS

Home | Current Version | Previous Version | Graphics & Text | Print | Product List | Glossary On
Versions: 1 2 3 4 5 6 7 8 9 10 11 12 13 14 15
443
FTUS43 KABR 051127
TAFPIR
TAF
KPIR 051127Z 0512/0612 23006KT P6SM BKN050
     FM051400 30011KT P6SM OVC040
     FM051800 32009KT P6SM BKN080
     FM060100 25006KT P6SM SCT250=

USA.gov is the U.S. government's official web portal to all federal, state and local government web resources and services.